Cardigan, United Kingdom
Current Conditions -  °F | °C
As of 11:50 AM on Thursday 23 Oct 2014 (Local Time) from EGOP Reporting Station
Broken Clouds Broken Clouds  
Wind Chill: 59°   Ceiling: 2900
Heat Index: 59°   Visibility: 6mi
Dew Point: 57°   Wind: 21mph
Humidity: 94%   Direction: 210°SSW
Pressure: 30.03"   Gusts: NA
Location:  52.09°N, 4.66°W
Report Text: EGOP 231050Z 21018KT 9999 FEW008 SCT023 BKN029 15/14 Q1017 WHT
Loading
Personal Weather Stations






























Interactive Weather Map
Tropical Storm Tracking
New forecast layout! Learn more

10-Day Weather Forecast

Advertisements
Track Severe Weather on mobile